Time;durP1;ratioP1;P1;durP2;ratioP2;P2;SDS_P1;SDS_P2;PMS_P1;PMS_P2;Temp;Humidity;BMP_temperature;BMP_pressure;BME280_temperature;BME280_humidity;BME280_pressure;Samples;Min_cycle;Max_cycle;Signal;HPM_P1;HPM_P2
2021/11/25 00:00:44;;;;;;;13.63;9.48;;;6.90;97.30;;;;;;5050249;28;20055;-64
2021/11/25 00:03:11;;;;;;;11.45;8.73;;;6.90;96.90;;;;;;5051212;28;20384;-63
2021/11/25 00:05:39;;;;;;;13.80;9.23;;;6.90;95.50;;;;;;5047745;28;20049;-64
2021/11/25 00:08:06;;;;;;;12.48;8.48;;;6.90;96.20;;;;;;5043507;28;20417;-65
2021/11/25 00:10:33;;;;;;;13.38;9.40;;;6.90;96.20;;;;;;5049816;28;20132;-65
2021/11/25 00:13:00;;;;;;;16.10;9.75;;;6.90;96.00;;;;;;5058249;28;20081;-65
2021/11/25 00:15:27;;;;;;;11.63;7.95;;;6.90;95.70;;;;;;5050758;28;20044;-64
2021/11/25 00:17:54;;;;;;;12.68;8.13;;;6.90;94.50;;;;;;5016927;28;20049;-64
2021/11/25 00:20:21;;;;;;;10.88;8.05;;;6.90;95.30;;;;;;5051365;28;20049;-65
2021/11/25 00:22:48;;;;;;;12.05;8.60;;;6.90;95.30;;;;;;5049759;28;20093;-64
2021/11/25 00:25:15;;;;;;;11.00;7.75;;;6.90;95.50;;;;;;5013756;28;20067;-66
2021/11/25 00:27:42;;;;;;;11.77;8.00;;;6.90;95.20;;;;;;5047678;28;20057;-63
2021/11/25 00:30:10;;;;;;;14.10;8.25;;;6.90;95.20;;;;;;5032772;28;20048;-65
2021/11/25 00:32:38;;;;;;;11.15;8.10;;;6.90;95.40;;;;;;5050843;28;20059;-64
2021/11/25 00:35:06;;;;;;;14.80;9.02;;;6.90;95.80;;;;;;5031797;28;20045;-65
2021/11/25 00:37:33;;;;;;;13.13;8.50;;;6.90;94.80;;;;;;5029964;28;20131;-65
2021/11/25 00:40:00;;;;;;;13.15;7.78;;;6.90;95.10;;;;;;5049792;28;20059;-64
2021/11/25 00:42:27;;;;;;;12.00;8.63;;;6.90;95.30;;;;;;5057361;28;20044;-64
2021/11/25 00:44:54;;;;;;;11.65;7.57;;;6.90;95.80;;;;;;5051740;28;20060;-65
2021/11/25 00:47:21;;;;;;;9.93;7.63;;;6.80;95.50;;;;;;5050131;28;20049;-65
2021/11/25 00:49:48;;;;;;;11.02;7.53;;;6.80;95.30;;;;;;5050442;28;20057;-64
2021/11/25 00:52:15;;;;;;;10.52;7.85;;;6.80;95.60;;;;;;5032770;28;20512;-68
2021/11/25 00:54:41;;;;;;;9.75;7.88;;;6.80;96.70;;;;;;5050390;28;20053;-64
2021/11/25 00:57:08;;;;;;;15.27;7.63;;;6.80;96.40;;;;;;5049953;28;20162;-64
2021/11/25 00:59:35;;;;;;;10.93;8.13;;;6.90;95.70;;;;;;5050103;28;20048;-64
2021/11/25 01:02:03;;;;;;;11.70;8.43;;;6.90;96.20;;;;;;5044396;28;20079;-64
2021/11/25 01:04:31;;;;;;;13.10;8.43;;;6.90;97.70;;;;;;5038201;28;20107;-65
2021/11/25 01:06:58;;;;;;;9.52;7.15;;;6.90;95.90;;;;;;5029241;28;20060;-65
2021/11/25 01:09:25;;;;;;;11.20;8.40;;;6.90;97.70;;;;;;5048555;28;20077;-64
2021/11/25 01:12:00;;;;;;;10.05;8.02;;;6.90;98.60;;;;;;5055723;28;20072;-64
2021/11/25 01:14:29;;;;;;;12.73;8.13;;;6.90;97.90;;;;;;5049373;28;20463;-66
2021/11/25 01:16:56;;;;;;;13.80;8.30;;;6.80;96.30;;;;;;5047731;28;20052;-64
2021/11/25 01:19:23;;;;;;;14.68;7.90;;;6.80;97.00;;;;;;5044577;28;20052;-63
2021/11/25 01:21:50;;;;;;;12.57;8.25;;;6.90;96.80;;;;;;5043881;28;20055;-64
2021/11/25 01:24:17;;;;;;;12.50;8.60;;;6.90;96.60;;;;;;5030220;28;20457;-64
2021/11/25 01:26:44;;;;;;;10.88;7.70;;;6.90;97.60;;;;;;5034600;28;20052;-64
2021/11/25 01:29:11;;;;;;;14.50;7.93;;;6.80;97.50;;;;;;5038693;28;20112;-63
2021/11/25 01:31:39;;;;;;;11.10;7.72;;;6.90;98.60;;;;;;5039073;28;20101;-64
2021/11/25 01:34:06;;;;;;;9.93;7.78;;;6.90;98.80;;;;;;5046500;28;20094;-64
2021/11/25 01:36:37;;;;;;;10.52;7.20;;;6.80;98.70;;;;;;5036787;28;20095;-64
2021/11/25 01:39:04;;;;;;;11.48;8.63;;;6.80;98.60;;;;;;5044635;28;20045;-64
2021/11/25 01:41:31;;;;;;;12.32;7.57;;;6.80;98.10;;;;;;5049787;28;20499;-63
2021/11/25 01:43:58;;;;;;;15.48;9.68;;;6.80;98.70;;;;;;5029863;28;20049;-64
2021/11/25 01:46:25;;;;;;;10.05;8.02;;;6.80;99.00;;;;;;5056676;28;20041;-65
2021/11/25 01:48:52;;;;;;;9.88;7.40;;;6.80;99.00;;;;;;5052401;28;20052;-64
2021/11/25 01:51:20;;;;;;;11.50;8.15;;;6.80;98.40;;;;;;5048854;28;20052;-64
2021/11/25 01:53:47;;;;;;;11.88;8.77;;;6.70;98.80;;;;;;5031458;28;20468;-64
2021/11/25 01:56:16;;;;;;;12.77;8.95;;;6.70;99.80;;;;;;5048546;28;20052;-69
2021/11/25 01:58:43;;;;;;;13.60;8.18;;;6.70;99.80;;;;;;5057597;28;20523;-65
2021/11/25 02:01:10;;;;;;;9.88;7.95;;;6.70;98.20;;;;;;5050620;28;20087;-65
2021/11/25 02:03:38;;;;;;;12.07;8.00;;;6.70;99.80;;;;;;5049015;28;20156;-64
2021/11/25 02:06:08;;;;;;;12.75;8.90;;;6.70;99.90;;;;;;5015198;28;20057;-64
2021/11/25 02:08:36;;;;;;;12.43;8.57;;;6.70;99.90;;;;;;5047699;28;20048;-66
2021/11/25 02:11:03;;;;;;;11.95;8.20;;;6.80;99.90;;;;;;5050020;28;20045;-64
2021/11/25 02:13:30;;;;;;;11.45;8.55;;;6.70;99.90;;;;;;5054922;28;20500;-65
2021/11/25 02:15:57;;;;;;;13.35;8.52;;;6.80;99.90;;;;;;5036596;28;20053;-64
2021/11/25 02:18:25;;;;;;;12.80;8.52;;;6.70;99.40;;;;;;5028226;28;20061;-64
2021/11/25 02:20:57;;;;;;;12.77;9.20;;;6.80;97.40;;;;;;5024149;28;20052;-63
2021/11/25 02:23:25;;;;;;;12.82;8.90;;;6.80;99.90;;;;;;5048227;28;20188;-64
2021/11/25 02:25:52;;;;;;;10.65;7.93;;;6.70;99.40;;;;;;5047743;28;20056;-63
2021/11/25 02:28:20;;;;;;;12.52;7.93;;;6.80;99.70;;;;;;5049969;28;20064;-63
2021/11/25 02:30:47;;;;;;;12.52;8.15;;;6.80;99.10;;;;;;5041867;28;20048;-64
2021/11/25 02:33:15;;;;;;;14.68;10.48;;;6.80;98.70;;;;;;5060464;28;20068;-63
2021/11/25 02:35:42;;;;;;;14.82;9.90;;;6.80;98.20;;;;;;5051272;28;20045;-63
2021/11/25 02:38:10;;;;;;;19.50;11.52;;;6.80;98.50;;;;;;5048964;28;20488;-64
2021/11/25 02:40:48;;;;;;;19.17;10.18;;;6.80;98.60;;;;;;5031568;28;20381;-63
2021/11/25 02:43:20;;;;;;;15.98;10.48;;;6.90;99.40;;;;;;5046688;28;20408;-63
2021/11/25 02:45:57;;;;;;;17.23;11.73;;;6.90;99.10;;;;;;5047328;28;20507;-64
2021/11/25 02:48:30;;;;;;;17.25;10.18;;;6.90;99.20;;;;;;5051961;28;20041;-63
2021/11/25 02:50:58;;;;;;;15.25;10.77;;;6.80;99.00;;;;;;5031166;28;20400;-63
2021/11/25 02:53:27;;;;;;;21.02;11.93;;;6.80;99.20;;;;;;5015577;28;20053;-63
2021/11/25 02:55:55;;;;;;;21.95;14.65;;;6.80;99.90;;;;;;5031921;28;20377;-68
2021/11/25 02:58:22;;;;;;;21.30;13.05;;;6.80;99.90;;;;;;5050845;28;20056;-64
2021/11/25 03:00:49;;;;;;;20.33;13.27;;;6.70;99.90;;;;;;5051311;28;20051;-63
2021/11/25 03:03:17;;;;;;;20.52;13.88;;;6.70;99.90;;;;;;5051768;28;20060;-64
2021/11/25 03:05:46;;;;;;;22.98;15.73;;;6.70;99.90;;;;;;5034531;28;20112;-64
2021/11/25 03:08:13;;;;;;;26.30;15.40;;;6.70;99.90;;;;;;5048291;28;20037;-64
2021/11/25 03:10:46;;;;;;;25.33;16.13;;;6.70;99.90;;;;;;5052071;28;20049;-64
2021/11/25 03:13:15;;;;;;;24.75;16.38;;;6.60;99.90;;;;;;5076807;28;20053;-64
2021/11/25 03:15:42;;;;;;;27.40;17.60;;;6.60;99.90;;;;;;5035088;28;20488;-64
2021/11/25 03:18:10;;;;;;;29.98;17.48;;;6.70;99.90;;;;;;5050887;28;20063;-64
2021/11/25 03:20:37;;;;;;;31.70;19.42;;;6.70;99.90;;;;;;5051612;28;20060;-63
2021/11/25 03:23:05;;;;;;;30.63;18.25;;;6.70;99.90;;;;;;5048392;28;20397;-64
2021/11/25 03:25:33;;;;;;;27.35;19.35;;;6.70;99.90;;;;;;5061875;28;20502;-64
2021/11/25 03:28:00;;;;;;;33.15;19.83;;;6.70;99.90;;;;;;5031824;28;20045;-64
2021/11/25 03:30:27;;;;;;;27.13;19.95;;;6.60;99.90;;;;;;5031496;28;20447;-66
2021/11/25 03:32:54;;;;;;;32.20;18.30;;;6.60;99.90;;;;;;5031287;28;20050;-64
2021/11/25 03:35:21;;;;;;;26.73;18.35;;;6.60;99.90;;;;;;5043989;28;20060;-64
2021/11/25 03:37:48;;;;;;;31.05;18.23;;;6.60;99.90;;;;;;5049397;28;20106;-65
2021/11/25 03:40:15;;;;;;;25.55;16.33;;;6.60;99.90;;;;;;5033877;28;20060;-64
2021/11/25 03:42:42;;;;;;;22.27;15.57;;;6.60;99.90;;;;;;5046924;28;20049;-64
2021/11/25 03:45:09;;;;;;;29.05;17.17;;;6.60;99.90;;;;;;5031876;28;20386;-63
2021/11/25 03:47:36;;;;;;;27.40;18.35;;;6.50;99.90;;;;;;5052606;28;20057;-64
2021/11/25 03:50:04;;;;;;;26.80;16.77;;;6.60;99.90;;;;;;5038643;28;20054;-64
2021/11/25 03:52:31;;;;;;;26.33;16.60;;;6.60;99.90;;;;;;5023173;28;20049;-64
2021/11/25 03:54:57;;;;;;;26.60;18.00;;;6.60;99.90;;;;;;5039533;28;20060;-63
2021/11/25 03:57:24;;;;;;;28.90;18.25;;;6.60;99.90;;;;;;5050842;28;20063;-63
2021/11/25 03:59:52;;;;;;;28.38;18.33;;;6.60;99.90;;;;;;5049443;28;20099;-63
2021/11/25 04:02:19;;;;;;;31.42;18.25;;;6.70;99.90;;;;;;5030742;28;20049;-64
2021/11/25 04:04:46;;;;;;;26.48;18.52;;;6.60;99.90;;;;;;5030029;28;20041;-64
2021/11/25 04:07:13;;;;;;;24.98;16.67;;;6.60;99.90;;;;;;5051664;28;20072;-63
2021/11/25 04:09:40;;;;;;;26.80;16.95;;;6.70;99.90;;;;;;5048129;28;20106;-64
2021/11/25 04:12:08;;;;;;;30.75;18.27;;;6.70;99.90;;;;;;5047656;28;20056;-63
2021/11/25 04:14:36;;;;;;;26.75;17.58;;;6.70;99.90;;;;;;5064534;28;20057;-63
2021/11/25 04:17:03;;;;;;;29.85;18.58;;;6.70;99.90;;;;;;5032618;28;20144;-66
2021/11/25 04:19:30;;;;;;;25.17;16.13;;;6.60;99.90;;;;;;5042907;28;20524;-63
2021/11/25 04:21:57;;;;;;;31.27;19.00;;;6.70;99.90;;;;;;5030930;28;20072;-63
2021/11/25 04:24:24;;;;;;;27.88;16.42;;;6.70;99.90;;;;;;5045774;28;20055;-64
2021/11/25 04:26:51;;;;;;;27.13;16.38;;;6.70;99.90;;;;;;5044979;28;20037;-64
2021/11/25 04:29:19;;;;;;;23.83;14.70;;;6.70;99.90;;;;;;5045541;28;20046;-63
2021/11/25 04:37:17;;;;;;;29.52;16.17;;;6.60;99.90;;;;;;5042660;28;20045;-64
2021/11/25 04:39:44;;;;;;;28.58;16.00;;;6.60;99.90;;;;;;5049028;28;20115;-63
2021/11/25 04:42:11;;;;;;;27.02;14.65;;;6.60;99.90;;;;;;5040354;28;20053;-64
2021/11/25 04:44:39;;;;;;;21.60;13.70;;;6.60;99.90;;;;;;5049500;28;20132;-65
2021/11/25 04:47:10;;;;;;;23.05;14.43;;;6.70;99.90;;;;;;5043212;28;20053;-65
2021/11/25 04:49:37;;;;;;;22.83;13.10;;;6.60;99.90;;;;;;5049296;28;20045;-65
2021/11/25 04:52:04;;;;;;;22.00;13.95;;;6.70;99.90;;;;;;5036126;28;20050;-62
2021/11/25 04:54:31;;;;;;;17.73;11.75;;;6.60;99.90;;;;;;5039223;28;20064;-65
2021/11/25 04:56:58;;;;;;;19.38;12.93;;;6.60;99.90;;;;;;5017890;28;20101;-64
2021/11/25 04:59:25;;;;;;;24.00;10.98;;;6.60;99.90;;;;;;5026665;28;20080;-65
2021/11/25 05:01:52;;;;;;;19.92;10.45;;;6.60;99.90;;;;;;5047520;28;20060;-67
2021/11/25 05:04:19;;;;;;;17.38;9.95;;;6.60;99.90;;;;;;5040916;28;20128;-64
2021/11/25 05:06:46;;;;;;;17.10;12.30;;;6.50;99.90;;;;;;5032069;28;20349;-64
2021/11/25 05:09:13;;;;;;;17.55;9.65;;;6.50;99.70;;;;;;5044643;28;20075;-65
2021/11/25 05:11:43;;;;;;;19.10;8.88;;;6.50;99.90;;;;;;5039662;28;20052;-64
2021/11/25 05:14:09;;;;;;;16.17;8.45;;;6.40;99.40;;;;;;5048483;28;20369;-64
2021/11/25 05:16:36;;;;;;;14.45;9.38;;;6.40;99.10;;;;;;5030845;28;20085;-64
2021/11/25 05:19:03;;;;;;;14.07;7.65;;;6.30;99.00;;;;;;5013378;28;20041;-65
2021/11/25 05:21:31;;;;;;;17.30;7.68;;;6.30;99.10;;;;;;5055811;28;20492;-64
2021/11/25 05:23:58;;;;;;;11.48;7.03;;;6.30;99.20;;;;;;5048003;28;20710;-64
2021/11/25 05:26:25;;;;;;;12.82;7.22;;;6.20;99.20;;;;;;5048778;28;20072;-66
2021/11/25 05:28:52;;;;;;;13.65;7.70;;;6.10;99.20;;;;;;5049489;28;20045;-65
2021/11/25 05:31:20;;;;;;;14.98;7.07;;;6.00;99.10;;;;;;5042538;28;20071;-63
2021/11/25 05:33:47;;;;;;;15.77;7.10;;;6.00;99.40;;;;;;5040661;28;20381;-63
2021/11/25 05:36:14;;;;;;;8.70;5.20;;;6.00;99.30;;;;;;5028527;28;20073;-63
2021/11/25 05:38:41;;;;;;;12.93;6.97;;;5.90;98.80;;;;;;5044839;28;20045;-65
2021/11/25 05:41:08;;;;;;;10.23;5.97;;;5.80;98.60;;;;;;5046220;28;20098;-64
2021/11/25 05:43:35;;;;;;;9.30;5.28;;;5.80;99.10;;;;;;5050022;28;20119;-63
2021/11/25 05:46:02;;;;;;;13.00;5.40;;;5.80;98.50;;;;;;5025917;28;20140;-63
2021/11/25 05:48:29;;;;;;;9.55;4.00;;;5.70;98.20;;;;;;5030601;28;20837;-63
2021/11/25 05:50:56;;;;;;;10.88;4.10;;;5.70;98.10;;;;;;5034780;28;20050;-63
2021/11/25 05:53:23;;;;;;;8.65;3.75;;;5.60;97.70;;;;;;5022515;28;20552;-63
2021/11/25 05:55:50;;;;;;;10.98;5.75;;;5.60;98.10;;;;;;5024887;28;20069;-63
2021/11/25 05:58:17;;;;;;;10.20;3.92;;;5.60;98.20;;;;;;5046598;28;20519;-63
2021/11/25 06:00:44;;;;;;;14.50;4.35;;;5.50;98.40;;;;;;5041264;28;20376;-66
2021/11/25 06:03:11;;;;;;;7.40;4.28;;;5.50;98.30;;;;;;5024524;28;20132;-63
2021/11/25 06:05:38;;;;;;;9.63;4.45;;;5.40;98.70;;;;;;5030928;28;20046;-63
2021/11/25 06:08:05;;;;;;;11.85;4.75;;;5.40;99.50;;;;;;5028658;28;20053;-63
2021/11/25 06:10:32;;;;;;;14.52;4.10;;;5.40;98.90;;;;;;5047729;28;20052;-62
2021/11/25 06:12:59;;;;;;;7.97;4.20;;;5.40;98.60;;;;;;5035934;28;20051;-63
2021/11/25 06:15:26;;;;;;;9.32;3.90;;;5.30;98.50;;;;;;5047483;28;20041;-63
2021/11/25 06:17:53;;;;;;;9.82;3.75;;;5.30;99.00;;;;;;5045844;28;20049;-63
2021/11/25 06:20:21;;;;;;;14.15;4.90;;;5.30;99.00;;;;;;5037661;28;20045;-64
2021/11/25 06:22:49;;;;;;;7.85;3.63;;;5.20;99.10;;;;;;5047008;28;20056;-63
2021/11/25 06:25:17;;;;;;;13.93;4.70;;;5.20;99.20;;;;;;5035656;28;20143;-64
2021/11/25 06:27:44;;;;;;;7.90;3.58;;;5.10;99.20;;;;;;5041844;28;20101;-66
2021/11/25 06:30:12;;;;;;;11.68;3.28;;;5.10;99.50;;;;;;5038647;28;20052;-64
2021/11/25 06:32:39;;;;;;;17.95;4.35;;;5.00;98.80;;;;;;5049490;28;20052;-63
2021/11/25 06:35:09;;;;;;;5.78;2.80;;;5.00;98.70;;;;;;5032527;28;20048;-63
2021/11/25 06:37:40;;;;;;;9.95;4.43;;;5.00;98.60;;;;;;5050464;28;20489;-64
2021/11/25 06:40:08;;;;;;;10.73;5.05;;;5.00;98.70;;;;;;5050295;28;20052;-63
2021/11/25 06:42:35;;;;;;;39.95;20.50;;;5.00;98.50;;;;;;5059472;28;20465;-67
2021/11/25 06:45:03;;;;;;;10.00;4.35;;;4.90;99.20;;;;;;5043565;28;20041;-65
2021/11/25 06:47:30;;;;;;;42.03;16.95;;;4.90;98.10;;;;;;5050845;28;20468;-64
2021/11/25 06:49:57;;;;;;;24.27;7.47;;;4.80;98.10;;;;;;5034706;28;20156;-67
2021/11/25 06:52:24;;;;;;;22.40;9.18;;;4.80;98.30;;;;;;5042389;28;20056;-65
2021/11/25 06:54:51;;;;;;;11.38;3.22;;;4.80;98.00;;;;;;5051081;28;20045;-63
2021/11/25 06:57:18;;;;;;;7.68;2.53;;;4.70;97.80;;;;;;5071571;28;20056;-62
2021/11/25 06:59:45;;;;;;;18.30;4.78;;;4.70;97.80;;;;;;5054911;28;20048;-64
2021/11/25 07:02:12;;;;;;;14.18;2.92;;;4.60;97.80;;;;;;5052861;28;20063;-64
2021/11/25 07:04:39;;;;;;;14.32;5.72;;;4.60;98.10;;;;;;5051457;28;20155;-67
2021/11/25 07:07:06;;;;;;;13.60;3.08;;;4.50;97.40;;;;;;5051728;28;20052;-63
2021/11/25 07:09:33;;;;;;;12.35;3.08;;;4.50;98.10;;;;;;5051456;28;20362;-65
2021/11/25 07:12:00;;;;;;;82.18;46.67;;;4.50;97.90;;;;;;5038973;28;20109;-65
2021/11/25 07:14:27;;;;;;;18.17;7.97;;;4.50;98.00;;;;;;5033805;28;20072;-66
2021/11/25 07:16:54;;;;;;;9.20;4.03;;;4.50;98.10;;;;;;5052395;28;20480;-65
2021/11/25 07:19:22;;;;;;;22.23;6.30;;;4.40;97.90;;;;;;5052441;28;20484;-65
2021/11/25 07:21:49;;;;;;;22.40;11.52;;;4.40;98.10;;;;;;5054223;28;20096;-66
2021/11/25 07:24:18;;;;;;;14.88;4.63;;;4.30;97.90;;;;;;5065563;28;20055;-65
2021/11/25 07:26:46;;;;;;;26.70;8.95;;;4.30;97.90;;;;;;5051975;28;20408;-66
2021/11/25 07:29:14;;;;;;;12.80;3.92;;;4.30;98.30;;;;;;5051934;28;20041;-67
2021/11/25 07:31:41;;;;;;;7.55;2.70;;;4.20;98.00;;;;;;5046966;28;20057;-67
2021/11/25 07:34:08;;;;;;;10.93;3.35;;;4.20;98.20;;;;;;5032887;28;20420;-67
2021/11/25 07:36:35;;;;;;;14.82;2.72;;;4.20;98.60;;;;;;5051221;28;20079;-67
2021/11/25 07:39:02;;;;;;;10.73;3.35;;;4.20;99.10;;;;;;5049835;28;20096;-67
2021/11/25 07:41:31;;;;;;;11.95;3.40;;;4.20;99.20;;;;;;5055295;28;20051;-66
2021/11/25 07:43:58;;;;;;;12.00;4.45;;;4.10;99.80;;;;;;5054189;28;20045;-66
2021/11/25 07:46:25;;;;;;;6.82;3.35;;;4.10;99.90;;;;;;5052097;28;20127;-67
2021/11/25 07:48:52;;;;;;;20.00;5.93;;;4.10;98.90;;;;;;5049225;28;20381;-65
2021/11/25 07:51:19;;;;;;;9.18;4.28;;;4.10;99.40;;;;;;5031911;28;20488;-66
2021/11/25 07:53:47;;;;;;;9.70;4.25;;;4.00;99.10;;;;;;5032657;28;20107;-65
2021/11/25 07:56:14;;;;;;;10.43;3.70;;;4.00;99.40;;;;;;5044521;28;20042;-65
2021/11/25 07:58:41;;;;;;;7.72;3.05;;;4.00;98.90;;;;;;5029295;28;20437;-68
2021/11/25 08:01:08;;;;;;;8.82;2.65;;;4.00;99.40;;;;;;5028615;28;20053;-69
2021/11/25 08:03:35;;;;;;;24.42;15.40;;;4.00;99.30;;;;;;5044569;28;20041;-73
2021/11/25 08:06:02;;;;;;;9.38;5.05;;;4.00;99.30;;;;;;5046411;28;20041;-71
2021/11/25 08:08:29;;;;;;;22.20;14.25;;;4.00;98.70;;;;;;5045836;28;20049;-72
2021/11/25 08:10:58;;;;;;;12.63;4.82;;;4.00;99.40;;;;;;5046080;28;20455;-70
2021/11/25 08:13:25;;;;;;;13.33;5.33;;;4.00;98.80;;;;;;5048920;28;20515;-68
2021/11/25 08:15:52;;;;;;;8.48;3.33;;;4.00;99.10;;;;;;5048204;28;20403;-69
2021/11/25 08:18:19;;;;;;;12.85;3.70;;;3.90;98.80;;;;;;5046575;28;20049;-67
2021/11/25 08:20:46;;;;;;;9.10;3.20;;;3.90;99.00;;;;;;5046886;28;20400;-64
2021/11/25 08:23:13;;;;;;;12.05;3.17;;;3.90;99.80;;;;;;5049632;28;20041;-67
2021/11/25 08:25:40;;;;;;;14.57;3.20;;;3.90;99.10;;;;;;5047792;28;20051;-70
2021/11/25 08:28:07;;;;;;;15.48;4.00;;;4.00;98.90;;;;;;5079208;28;20568;-67
2021/11/25 08:30:35;;;;;;;8.85;2.70;;;4.00;99.40;;;;;;5048283;28;20060;-67
2021/11/25 08:33:02;;;;;;;6.65;2.72;;;4.00;98.70;;;;;;5047730;28;20511;-66
2021/11/25 08:35:29;;;;;;;10.23;2.65;;;4.00;98.70;;;;;;5033358;28;20102;-67
2021/11/25 08:37:56;;;;;;;60.45;36.97;;;4.00;98.10;;;;;;5051648;28;20045;-67
2021/11/25 08:40:23;;;;;;;120.78;83.30;;;4.10;98.80;;;;;;5050393;28;20057;-66
2021/11/25 08:42:51;;;;;;;11.02;4.20;;;4.10;99.50;;;;;;5050960;28;20076;-71
2021/11/25 08:45:18;;;;;;;6.88;2.83;;;4.10;98.20;;;;;;5049106;28;20049;-70
2021/11/25 08:47:45;;;;;;;10.43;2.80;;;4.10;98.20;;;;;;5049394;28;20067;-70
2021/11/25 08:50:15;;;;;;;8.80;3.05;;;4.10;98.10;;;;;;5050588;28;20048;-71
2021/11/25 08:52:42;;;;;;;10.43;3.10;;;4.10;98.70;;;;;;5048814;28;20060;-72
2021/11/25 08:55:10;;;;;;;5.63;2.95;;;4.10;98.30;;;;;;5019187;28;20084;-67
2021/11/25 08:57:38;;;;;;;17.65;3.28;;;4.10;97.60;;;;;;5032637;28;20519;-68
2021/11/25 09:00:06;;;;;;;11.48;3.20;;;4.10;97.60;;;;;;5050645;28;20047;-65
2021/11/25 09:02:33;;;;;;;12.70;2.95;;;4.10;97.60;;;;;;5049463;28;20045;-70
2021/11/25 09:05:01;;;;;;;8.55;3.03;;;4.20;97.20;;;;;;5050328;28;20083;-70
2021/11/25 09:07:28;;;;;;;7.57;3.45;;;4.20;97.30;;;;;;5048856;28;20396;-72
2021/11/25 09:09:55;;;;;;;35.85;19.40;;;4.20;97.10;;;;;;5031375;28;20396;-72
2021/11/25 09:12:22;;;;;;;13.27;3.50;;;4.20;97.20;;;;;;5060925;28;20063;-74
2021/11/25 09:15:09;;;;;;;10.50;3.17;;;4.20;96.50;;;;;;5035339;28;20436;-66
2021/11/25 09:17:36;;;;;;;11.20;3.83;;;4.20;96.50;;;;;;5050033;28;20477;-68
2021/11/25 09:20:30;;;;;;;7.22;3.25;;;4.30;96.80;;;;;;5048457;28;20921;-67
2021/11/25 09:22:57;;;;;;;11.90;2.55;;;4.30;96.60;;;;;;5049475;28;20052;-66
2021/11/25 09:25:24;;;;;;;6.65;2.78;;;4.30;96.70;;;;;;5050493;28;20049;-64
2021/11/25 09:27:51;;;;;;;9.43;3.67;;;4.30;96.60;;;;;;5048720;28;20480;-66
2021/11/25 09:30:18;;;;;;;11.05;2.97;;;4.40;96.80;;;;;;5050475;28;20496;-65
2021/11/25 09:32:46;;;;;;;10.82;2.65;;;4.40;96.20;;;;;;5048650;28;20045;-65
2021/11/25 09:35:16;;;;;;;7.95;2.67;;;4.40;95.50;;;;;;5048910;28;20059;-65
2021/11/25 09:37:44;;;;;;;8.25;3.20;;;4.40;95.90;;;;;;5048554;28;20493;-66
2021/11/25 09:40:21;;;;;;;4.65;2.55;;;4.40;95.40;;;;;;5032551;28;20397;-65
2021/11/25 09:42:49;;;;;;;8.38;2.83;;;4.50;95.10;;;;;;5066348;28;20041;-65
2021/11/25 09:45:19;;;;;;;9.30;4.22;;;4.50;95.50;;;;;;5052450;28;20121;-64
2021/11/25 09:47:46;;;;;;;8.57;2.63;;;4.50;95.50;;;;;;5068076;28;20078;-65
2021/11/25 09:50:13;;;;;;;8.23;2.75;;;4.60;95.00;;;;;;5054382;28;20041;-65
2021/11/25 09:52:40;;;;;;;11.63;2.70;;;4.60;95.20;;;;;;5046068;28;20049;-65
2021/11/25 09:55:08;;;;;;;9.18;2.67;;;4.70;95.00;;;;;;5031983;28;20045;-65
2021/11/25 09:57:35;;;;;;;7.93;2.60;;;4.60;94.50;;;;;;5035503;28;20057;-65
2021/11/25 10:00:04;;;;;;;10.90;2.45;;;4.70;94.30;;;;;;5012422;28;20061;-67
2021/11/25 10:02:31;;;;;;;10.30;2.97;;;4.70;95.30;;;;;;5028598;28;20049;-65
2021/11/25 10:04:58;;;;;;;10.15;4.20;;;4.80;94.50;;;;;;5028311;28;20045;-64
2021/11/25 10:07:31;;;;;;;6.22;2.90;;;4.80;94.10;;;;;;5032852;28;20058;-65
2021/11/25 10:09:58;;;;;;;9.95;2.63;;;4.90;93.80;;;;;;5032546;28;20060;-65
2021/11/25 10:12:38;;;;;;;9.20;2.67;;;4.90;94.40;;;;;;5043717;28;20500;-65
2021/11/25 10:15:31;;;;;;;14.52;3.00;;;4.90;93.80;;;;;;5072509;28;20484;-65
2021/11/25 10:18:00;;;;;;;7.40;2.10;;;5.00;94.00;;;;;;5072582;28;20135;-65
2021/11/25 10:20:37;;;;;;;5.13;2.50;;;4.90;93.70;;;;;;5055499;28;20186;-65
2021/11/25 10:23:04;;;;;;;8.02;2.40;;;5.00;94.10;;;;;;5060876;28;20045;-65
2021/11/25 10:25:44;;;;;;;11.20;2.88;;;5.00;93.80;;;;;;5053717;28;20443;-64
2021/11/25 10:28:18;;;;;;;;;;;5.10;94.30;;;;;;5053989;28;20053;-65
2021/11/25 10:30:45;;;;;;;9.15;2.47;;;5.10;93.60;;;;;;5085358;28;19970;-65
2021/11/25 10:33:13;;;;;;;8.73;3.00;;;5.10;93.60;;;;;;5052143;28;20136;-65
2021/11/25 10:36:04;;;;;;;9.85;2.72;;;5.20;93.40;;;;;;5052605;28;20081;-65
2021/11/25 10:38:58;;;;;;;7.28;2.40;;;5.20;92.90;;;;;;5052685;28;20053;-66
2021/11/25 10:41:26;;;;;;;8.43;3.00;;;5.20;93.10;;;;;;5039117;28;20500;-65
2021/11/25 10:44:17;;;;;;;8.55;2.28;;;5.20;94.50;;;;;;5052872;28;20071;-65
2021/11/25 10:46:55;;;;;;;13.63;7.95;;;5.30;93.30;;;;;;5051826;28;20056;-64
2021/11/25 10:49:37;;;;;;;14.30;8.88;;;5.30;92.70;;;;;;5036066;28;20060;-65
2021/11/25 10:52:17;;;;;;;8.23;3.70;;;5.30;92.40;;;;;;5051597;28;20053;-65
2021/11/25 10:54:47;;;;;;;11.18;2.85;;;5.40;92.30;;;;;;5053057;28;20049;-65
2021/11/25 10:57:14;;;;;;;11.00;3.42;;;5.40;93.00;;;;;;5035809;28;20465;-65
2021/11/25 10:59:48;;;;;;;10.02;2.40;;;5.40;92.30;;;;;;5051540;28;20556;-70
2021/11/25 11:02:19;;;;;;;4.32;2.17;;;5.40;92.10;;;;;;5051583;28;20469;-65
2021/11/25 11:04:46;;;;;;;7.43;2.83;;;5.40;92.70;;;;;;5052419;28;20472;-66
2021/11/25 11:07:23;;;;;;;11.05;3.33;;;5.50;92.30;;;;;;5034859;28;20045;-65
2021/11/25 11:09:51;;;;;;;4.40;2.47;;;5.60;91.90;;;;;;5035059;28;20056;-65
2021/11/25 11:12:33;;;;;;;8.57;2.72;;;5.50;92.10;;;;;;5050210;28;20060;-65
2021/11/25 11:15:26;;;;;;;8.10;2.70;;;5.60;92.10;;;;;;5051923;28;20386;-65
2021/11/25 11:18:42;;;;;;;9.02;2.88;;;5.60;91.80;;;;;;5043545;28;20045;-65
2021/11/25 11:20:48;;;;;;;10.00;3.78;;;5.70;92.00;;;;;;5033991;28;20049;-65
2021/11/25 11:23:16;;;;;;;8.03;2.43;;;5.70;91.70;;;;;;5046890;28;20083;-65
2021/11/25 11:25:43;;;;;;;9.68;2.90;;;5.70;91.40;;;;;;5050227;28;20162;-65
2021/11/25 11:28:10;;;;;;;23.85;5.35;;;5.70;91.90;;;;;;5050173;28;20056;-65
2021/11/25 11:30:41;;;;;;;10.70;3.15;;;5.80;91.60;;;;;;5049562;28;20056;-65
2021/11/25 11:33:13;;;;;;;6.68;2.60;;;5.80;91.30;;;;;;5049489;28;20400;-67
2021/11/25 11:35:41;;;;;;;11.13;2.70;;;5.80;90.90;;;;;;5033124;28;20075;-65
2021/11/25 11:38:13;;;;;;;8.07;2.80;;;5.80;91.10;;;;;;5030151;28;20045;-66
2021/11/25 11:40:40;;;;;;;10.15;3.00;;;5.80;91.60;;;;;;5050047;28;20041;-66
2021/11/25 11:43:07;;;;;;;6.03;2.40;;;5.80;90.90;;;;;;5051388;28;20384;-65
2021/11/25 11:45:34;;;;;;;301.90;179.00;;;5.90;92.50;;;;;;5032571;28;20052;-63
2021/11/25 11:48:03;;;;;;;15.70;6.25;;;5.90;90.70;;;;;;5049339;28;20146;-66
2021/11/25 11:50:48;;;;;;;7.25;3.05;;;5.90;90.20;;;;;;5042724;28;20060;-63
2021/11/25 11:53:18;;;;;;;8.52;3.78;;;6.00;90.70;;;;;;5033091;28;20056;-69
2021/11/25 11:56:08;;;;;;;12.95;3.35;;;6.10;90.70;;;;;;5048584;28;20040;-63
2021/11/25 11:58:54;;;;;;;7.28;2.67;;;6.10;90.70;;;;;;5049375;28;20145;-64
2021/11/25 12:01:26;;;;;;;18.65;4.35;;;6.10;90.10;;;;;;5050874;28;20053;-69
2021/11/25 12:03:58;;;;;;;11.07;2.90;;;6.10;90.40;;;;;;5046918;28;20400;-63
2021/11/25 12:06:48;;;;;;;11.63;2.80;;;6.10;90.00;;;;;;5033042;28;20045;-61
2021/11/25 12:09:21;;;;;;;8.15;2.65;;;6.10;90.20;;;;;;5038524;28;20046;-62
2021/11/25 12:12:11;;;;;;;10.95;3.33;;;6.10;90.80;;;;;;5009717;28;1179298;-70
2021/11/25 12:14:51;;;;;;;10.55;2.67;;;6.10;90.20;;;;;;5050013;28;20076;-72
2021/11/25 12:17:30;;;;;;;8.35;2.83;;;6.20;90.20;;;;;;5050107;28;20448;-73
2021/11/25 12:20:21;;;;;;;15.88;4.40;;;6.20;90.50;;;;;;5047062;28;20053;-70
2021/11/25 12:22:49;;;;;;;6.22;2.80;;;6.20;89.40;;;;;;5029407;28;20064;-75
2021/11/25 12:25:29;;;;;;;8.27;2.47;;;6.30;89.30;;;;;;5032851;28;20063;-71
2021/11/25 12:28:25;;;;;;;9.18;3.50;;;6.30;88.70;;;;;;5050080;28;20049;-75
2021/11/25 12:30:55;;;;;;;7.70;3.58;;;6.30;89.10;;;;;;5050600;28;20063;-73
2021/11/25 12:33:42;;;;;;;9.02;2.70;;;6.30;89.40;;;;;;5033565;28;20060;-72
2021/11/25 12:36:31;;;;;;;10.82;3.08;;;6.30;90.10;;;;;;5043813;28;20044;-69
2021/11/25 12:38:59;;;;;;;74.45;52.25;;;6.40;89.20;;;;;;5041761;28;20061;-74
2021/11/25 12:41:26;;;;;;;17.17;9.55;;;6.40;88.40;;;;;;5033041;28;20142;-72
2021/11/25 12:43:53;;;;;;;12.85;5.00;;;6.40;88.70;;;;;;5028874;28;20073;-74
2021/11/25 12:46:20;;;;;;;8.18;3.22;;;6.40;89.20;;;;;;5033258;28;20133;-72
2021/11/25 12:48:52;;;;;;;8.32;2.78;;;6.40;89.20;;;;;;5049543;28;20080;-68
2021/11/25 12:51:20;;;;;;;6.10;2.63;;;6.40;89.80;;;;;;5050923;28;20053;-71
2021/11/25 12:53:55;;;;;;;9.20;2.38;;;6.40;89.10;;;;;;5049596;28;20381;-67
2021/11/25 12:56:34;;;;;;;4.88;2.45;;;6.40;88.30;;;;;;5048998;28;20064;-67
2021/11/25 12:59:05;;;;;;;11.60;2.60;;;6.40;89.70;;;;;;5033486;28;20523;-70
2021/11/25 13:01:37;;;;;;;7.32;2.72;;;6.40;89.50;;;;;;5049827;28;20111;-73
2021/11/25 13:04:28;;;;;;;12.23;3.65;;;6.40;88.40;;;;;;5029281;28;20057;-74